Time,TemperatureF,DewpointF,PressureIn,WindDirection,WindDirectionDegrees,WindSpeedMPH,WindSpeedGustMPH,Humidity,HourlyPrecipIn,Conditions,Clouds,dailyrainin,SoftwareType,DateUTC
2013-07-24 00:11:00,-999.0,-99.9,-100.00,NE,48,11.0,17.0,-999,-99.99,,,-99.99,,2013-07-24 04:11:00,
2013-07-24 00:32:00,-999.0,-99.9,-100.00,ENE,66,12.0,16.0,-999,-99.99,,,-99.99,,2013-07-24 04:32:00,
2013-07-24 00:44:00,-999.0,-99.9,-100.00,ENE,66,12.0,18.0,-999,-99.99,,,-99.99,,2013-07-24 04:44:00,
2013-07-24 01:22:00,-999.0,-99.9,-100.00,ENE,68,12.0,15.0,-999,-99.99,,,-99.99,,2013-07-24 05:22:00,
2013-07-24 01:43:00,57.0,41.0,-100.00,ENE,69,12.0,14.0,55,0.00,,,-99.99,,2013-07-24 05:43:00,
2013-07-24 02:01:00,57.0,41.0,-100.00,ENE,75,12.0,19.0,55,0.00,,,-99.99,,2013-07-24 06:01:00,
2013-07-24 02:24:00,56.0,41.0,-100.00,East,82,14.0,17.0,58,0.00,,,-99.99,,2013-07-24 06:24:00,
2013-07-24 02:43:00,55.0,42.0,-100.00,East,80,12.0,16.0,59,0.00,,,-99.99,,2013-07-24 06:43:00,
2013-07-24 03:43:00,55.0,42.0,-100.00,ENE,72,1.0,7.0,60,0.00,,,-99.99,,2013-07-24 07:43:00,
2013-07-24 04:02:00,57.0,42.0,-100.00,East,93,2.0,7.0,56,0.00,,,-99.99,,2013-07-24 08:02:00,
2013-07-24 04:32:00,58.0,41.0,-100.00,NNW,346,1.0,4.0,53,0.00,,,-99.99,,2013-07-24 08:32:00,
2013-07-24 04:42:00,58.0,41.0,-100.00,NW,304,0.0,0.0,54,0.00,,,-99.99,,2013-07-24 08:42:00,
2013-07-24 05:02:00,58.0,41.0,-100.00,NW,316,0.0,0.0,53,0.00,,,-99.99,,2013-07-24 09:02:00,
2013-07-24 05:32:00,56.0,41.0,-100.00,West,280,0.0,0.0,56,0.00,,,-99.99,,2013-07-24 09:32:00,
2013-07-24 05:43:00,56.0,41.0,-100.00,West,274,0.0,0.0,56,0.00,,,-99.99,,2013-07-24 09:43:00,
2013-07-24 06:43:00,56.0,40.0,-100.00,WNW,298,0.0,0.0,55,0.00,,,-99.99,,2013-07-24 10:43:00,
2013-07-24 07:43:00,55.0,41.0,-100.00,West,278,2.0,3.0,58,0.00,,,-99.99,,2013-07-24 11:43:00,
2013-07-24 08:42:00,56.0,41.0,-100.00,WNW,299,0.0,0.0,55,0.00,,,-99.99,,2013-07-24 12:42:00,
2013-07-24 10:43:00,62.0,40.0,-100.00,ENE,72,3.0,6.0,45,0.00,,,-99.99,,2013-07-24 14:43:00,
2013-07-24 11:22:00,63.0,39.0,-100.00,NE,51,6.0,9.0,40,0.00,,,-99.99,,2013-07-24 15:22:00,
2013-07-24 11:43:00,64.0,42.0,-100.00,ENE,64,6.0,10.0,45,0.00,,,-99.99,,2013-07-24 15:43:00,
2013-07-24 11:52:00,63.0,41.0,-100.00,ENE,65,7.0,12.0,43,0.00,,,-99.99,,2013-07-24 15:52:00,
2013-07-24 12:02:00,64.0,41.0,-100.00,East,82,9.0,13.0,42,0.00,,,-99.99,,2013-07-24 16:02:00,
2013-07-24 12:12:00,64.0,41.0,-100.00,East,88,9.0,13.0,43,0.00,,,-99.99,,2013-07-24 16:12:00,
2013-07-24 12:22:00,64.0,40.0,-100.00,East,90,9.0,13.0,42,0.00,,,-99.99,,2013-07-24 16:22:00,
2013-07-24 12:32:00,63.0,42.0,-100.00,East,88,10.0,14.0,46,0.00,,,-99.99,,2013-07-24 16:32:00,
2013-07-24 12:43:00,64.0,42.0,-100.00,East,80,9.0,13.0,43,0.00,,,-99.99,,2013-07-24 16:43:00,
2013-07-24 12:53:00,64.0,43.0,-100.00,ENE,73,9.0,12.0,46,0.00,,,-99.99,,2013-07-24 16:53:00,
2013-07-24 13:02:00,64.0,42.0,-100.00,East,85,10.0,13.0,45,0.00,,,-99.99,,2013-07-24 17:02:00,
2013-07-24 13:12:00,65.0,44.0,-100.00,East,79,9.0,12.0,46,0.00,,,-99.99,,2013-07-24 17:12:00,
2013-07-24 13:22:00,65.0,44.0,-100.00,East,80,12.0,17.0,47,0.00,,,-99.99,,2013-07-24 17:22:00,
2013-07-24 13:33:00,65.0,42.0,-100.00,ENE,78,12.0,16.0,43,0.00,,,-99.99,,2013-07-24 17:33:00,
2013-07-24 13:43:00,66.0,43.0,-100.00,East,79,11.0,15.0,43,0.00,,,-99.99,,2013-07-24 17:43:00,
2013-07-24 13:53:00,66.0,42.0,-100.00,East,85,11.0,14.0,41,0.00,,,-99.99,,2013-07-24 17:53:00,
2013-07-24 14:02:00,67.0,42.0,-100.00,ENE,78,11.0,15.0,40,0.00,,,-99.99,,2013-07-24 18:02:00,
2013-07-24 14:12:00,66.0,44.0,-100.00,East,85,12.0,16.0,45,0.00,,,-99.99,,2013-07-24 18:12:00,
2013-07-24 14:22:00,67.0,43.0,-100.00,East,88,11.0,17.0,41,0.00,,,-99.99,,2013-07-24 18:22:00,
2013-07-24 14:43:00,-999.0,-99.9,-100.00,East,85,12.0,16.0,-999,-99.99,,,-99.99,,2013-07-24 18:43:00,
2013-07-24 15:32:00,72.0,42.0,-100.00,East,86,16.0,23.0,34,0.00,,,-99.99,,2013-07-24 19:32:00,
2013-07-24 15:43:00,-999.0,-99.9,-100.00,East,86,15.0,21.0,-999,-99.99,,,-99.99,,2013-07-24 19:43:00,
2013-07-24 15:53:00,71.0,42.0,-100.00,East,89,15.0,23.0,35,0.00,,,-99.99,,2013-07-24 19:53:00,
2013-07-24 16:02:00,72.0,41.0,-100.00,ENE,75,13.0,20.0,32,0.00,,,-99.99,,2013-07-24 20:02:00,
2013-07-24 16:22:00,71.0,39.0,-100.00,East,85,17.0,23.0,32,0.00,,,-99.99,,2013-07-24 20:22:00,
2013-07-24 16:32:00,72.0,41.0,-100.00,ENE,68,17.0,24.0,32,0.00,,,-99.99,,2013-07-24 20:32:00,
2013-07-24 16:42:00,72.0,39.0,-100.00,ENE,68,16.0,22.0,30,0.00,,,-99.99,,2013-07-24 20:42:00,
2013-07-24 16:52:00,71.0,39.0,-100.00,East,92,18.0,25.0,31,0.00,,,-99.99,,2013-07-24 20:52:00,
2013-07-24 17:02:00,70.0,38.0,-100.00,East,85,16.0,21.0,31,0.00,,,-99.99,,2013-07-24 21:02:00,
2013-07-24 17:43:00,69.0,37.0,-100.00,East,82,15.0,21.0,31,0.00,,,-99.99,,2013-07-24 21:43:00,
2013-07-24 18:43:00,72.0,37.0,-100.00,East,82,14.0,19.0,28,0.00,,,-99.99,,2013-07-24 22:43:00,
2013-07-24 19:43:00,-999.0,-99.9,-100.00,NE,47,11.0,16.0,-999,-99.99,,,-99.99,,2013-07-24 23:43:00,
2013-07-24 20:43:00,69.0,35.0,-100.00,East,83,15.0,19.0,28,0.00,,,-99.99,,2013-07-25 00:43:00,
2013-07-24 21:02:00,69.0,36.0,-100.00,East,99,15.0,20.0,31,0.00,,,-99.99,,2013-07-25 01:02:00,
2013-07-24 21:42:00,68.0,35.0,-100.00,East,89,6.0,9.0,30,0.00,,,-99.99,,2013-07-25 01:42:00,
2013-07-24 22:33:00,-999.0,-99.9,-100.00,ENE,72,7.0,12.0,-999,-99.99,,,-99.99,,2013-07-25 02:33:00,
2013-07-24 22:43:00,64.0,34.0,-100.00,East,79,6.0,9.0,32,0.00,,,-99.99,,2013-07-25 02:43:00,
2013-07-24 23:44:00,65.0,33.0,-100.00,South,182,3.0,6.0,30,0.00,,,-99.99,,2013-07-25 03:44:00,